Time;durP1;ratioP1;P1;durP2;ratioP2;P2;SDS_P1;SDS_P2;PMS_P1;PMS_P2;Temp;Humidity;BMP_temperature;BMP_pressure;BME280_temperature;BME280_humidity;BME280_pressure;Samples;Min_cycle;Max_cycle;Signal;HPM_P1;HPM_P2
2022/01/17 00:02:03;;;;;;;1.15;0.40;;;;;;;-0.25;99.17;97826.09;5066824;28;20126;-80
2022/01/17 00:04:29;;;;;;;1.08;0.45;;;;;;;-0.27;99.53;97829.09;5050926;28;20029;-80
2022/01/17 00:06:55;;;;;;;1.48;0.60;;;;;;;-0.28;99.95;97815.91;5051591;28;20041;-79
2022/01/17 00:09:22;;;;;;;0.60;0.45;;;;;;;-0.29;99.52;97831.25;5051487;28;20037;-80
2022/01/17 00:11:49;;;;;;;2.83;0.50;;;;;;;-0.28;99.05;97835.56;5050318;28;20053;-80
2022/01/17 00:14:18;;;;;;;0.30;0.30;;;;;;;-0.28;99.04;97830.16;5034601;28;20511;-80
2022/01/17 00:16:51;;;;;;;0.43;0.40;;;;;;;-0.32;99.29;97829.94;5017179;28;20043;-80
2022/01/17 00:19:34;;;;;;;1.75;0.60;;;;;;;-0.32;99.27;97823.75;5051020;28;20048;-80
2022/01/17 00:22:00;;;;;;;0.70;0.50;;;;;;;-0.34;98.99;97821.31;5051439;28;20040;-81
2022/01/17 00:24:25;;;;;;;0.88;0.47;;;;;;;-0.36;99.13;97820.78;5033720;28;20041;-81
2022/01/17 00:26:52;;;;;;;1.77;0.57;;;;;;;-0.37;98.92;97813.78;5033441;28;20089;-81
2022/01/17 00:29:18;;;;;;;0.57;0.40;;;;;;;-0.37;99.09;97805.69;5051708;28;20068;-81
2022/01/17 00:31:43;;;;;;;0.43;0.43;;;;;;;-0.38;99.27;97809.47;5051267;28;20072;-81
2022/01/17 00:34:09;;;;;;;0.75;0.50;;;;;;;-0.41;99.33;97793.88;5035618;28;20040;-80
2022/01/17 00:36:35;;;;;;;1.35;0.68;;;;;;;-0.41;99.10;97796.56;5051392;28;20084;-81
2022/01/17 00:39:00;;;;;;;2.03;0.65;;;;;;;-0.41;99.46;97795.75;5051802;28;20037;-82
2022/01/17 00:41:26;;;;;;;0.47;0.47;;;;;;;-0.43;99.35;97790.66;5051810;28;20041;-82
2022/01/17 00:43:52;;;;;;;1.83;0.75;;;;;;;-0.43;99.07;97790.66;5049701;28;20040;-82
2022/01/17 00:46:18;;;;;;;1.42;0.60;;;;;;;-0.44;99.18;97788.25;5014275;28;20034;-82
2022/01/17 00:48:43;;;;;;;1.20;0.63;;;;;;;-0.44;99.04;97789.06;5033276;28;20087;-82
2022/01/17 00:51:09;;;;;;;2.03;0.60;;;;;;;-0.46;99.41;97796.63;5054003;28;20048;-82
2022/01/17 00:53:37;;;;;;;1.50;0.70;;;;;;;-0.47;98.88;97784.22;5047098;28;20048;-82
2022/01/17 00:56:05;;;;;;;0.52;0.52;;;;;;;-0.45;99.37;97775.88;5046090;28;20037;-82
2022/01/17 00:58:31;;;;;;;1.80;0.68;;;;;;;-0.45;98.87;97770.47;5046662;28;20094;-82
2022/01/17 01:00:56;;;;;;;1.55;0.70;;;;;;;-0.45;98.87;97768.59;5046250;28;20454;-82
2022/01/17 01:03:22;;;;;;;1.75;0.60;;;;;;;-0.48;99.14;97765.66;5046767;28;20649;-82
2022/01/17 01:05:47;;;;;;;2.22;0.65;;;;;;;-0.51;99.01;97756.25;5048852;28;20037;-81
2022/01/17 01:08:13;;;;;;;0.52;0.50;;;;;;;-0.52;98.29;97751.94;5050703;28;20045;-81
2022/01/17 01:10:39;;;;;;;1.50;0.60;;;;;;;-0.52;98.93;97748.44;5051109;28;20080;-81
2022/01/17 01:13:04;;;;;;;1.55;0.60;;;;;;;-0.55;99.11;97740.91;5033283;28;20123;-81
2022/01/17 01:18:36;;;;;;;2.78;0.40;;;;;;;-0.63;98.43;97753.09;5045632;28;20037;-81
2022/01/17 01:29:03;;;;;;;0.60;0.50;;;;;;;-0.68;98.30;97739.66;5026416;28;20032;-81
2022/01/17 01:31:44;;;;;;;0.93;0.50;;;;;;;-0.71;98.11;97732.13;5027605;28;20037;-81
2022/01/17 01:34:11;;;;;;;0.60;0.60;;;;;;;-0.71;98.35;97710.59;5045445;28;20033;-81
2022/01/17 01:36:38;;;;;;;0.60;0.32;;;;;;;-0.74;98.13;97711.94;5050192;28;20033;-81
2022/01/17 01:39:05;;;;;;;0.45;0.45;;;;;;;-0.74;97.97;97703.88;5046515;28;20392;-80
2022/01/17 01:41:42;;;;;;;0.70;0.45;;;;;;;-0.74;98.42;97693.09;5028764;28;20539;-80
2022/01/17 01:44:17;;;;;;;1.02;0.70;;;;;;;-0.70;98.23;97701.41;5043749;28;20048;-80
2022/01/17 01:46:43;;;;;;;0.50;0.50;;;;;;;-0.69;98.28;97695.78;5051298;28;20517;-81
2022/01/17 01:49:09;;;;;;;1.95;0.60;;;;;;;-0.70;98.29;97694.16;5052584;28;20033;-81
2022/01/17 01:51:35;;;;;;;1.48;0.70;;;;;;;-0.70;98.47;97690.66;5032888;28;20044;-81
2022/01/17 01:54:00;;;;;;;1.50;0.80;;;;;;;-0.72;98.31;97680.16;5061583;28;20045;-81
2022/01/17 01:56:26;;;;;;;0.90;0.60;;;;;;;-0.72;97.71;97682.84;5045658;28;20061;-82
2022/01/17 01:58:51;;;;;;;1.77;0.60;;;;;;;-0.68;97.98;97680.44;5043573;28;20045;-82
2022/01/17 02:01:17;;;;;;;0.70;0.50;;;;;;;-0.67;97.83;97680.16;5046615;28;20051;-82
2022/01/17 02:03:43;;;;;;;1.35;0.60;;;;;;;-0.67;97.88;97671.28;5029219;28;20040;-82
2022/01/17 02:06:08;;;;;;;1.92;0.60;;;;;;;-0.68;97.66;97658.91;5048674;28;20068;-82
2022/01/17 02:08:35;;;;;;;0.95;0.63;;;;;;;-0.66;97.46;97656.72;5047184;28;20048;-82
2022/01/17 02:11:00;;;;;;;0.98;0.60;;;;;;;-0.67;97.51;97641.66;5041934;28;20120;-82
2022/01/17 02:13:27;;;;;;;0.63;0.55;;;;;;;-0.67;97.21;97647.03;5045998;28;20145;-82
2022/01/17 02:16:03;;;;;;;0.70;0.68;;;;;;;-0.69;97.65;97651.91;5027317;28;20037;-82
2022/01/17 02:18:30;;;;;;;0.75;0.50;;;;;;;-0.72;97.64;97653.25;5062256;28;20044;-81
2022/01/17 02:23:54;;;;;;;1.15;0.60;;;;;;;-0.77;97.28;97639.03;5045634;28;20040;-82
2022/01/17 02:26:20;;;;;;;0.82;0.50;;;;;;;-0.76;97.19;97629.88;5045041;28;20029;-81
2022/01/17 02:28:48;;;;;;;2.25;0.60;;;;;;;-0.75;97.39;97632.28;5027487;28;20048;-81
2022/01/17 02:31:14;;;;;;;0.80;0.73;;;;;;;-0.72;97.21;97625.50;5045035;28;20028;-81
2022/01/17 02:33:40;;;;;;;0.90;0.50;;;;;;;-0.72;97.07;97622.81;5011024;28;20298;-81
2022/01/17 02:36:06;;;;;;;1.33;0.60;;;;;;;-0.72;97.38;97609.38;5045127;28;20542;-81
2022/01/17 02:38:31;;;;;;;0.40;0.40;;;;;;;-0.74;97.54;97598.88;5029988;28;20066;-81
2022/01/17 02:40:57;;;;;;;1.27;0.60;;;;;;;-0.74;97.49;97600.75;5051922;28;20045;-81
2022/01/17 02:43:24;;;;;;;1.15;0.60;;;;;;;-0.76;97.16;97606.44;5048874;28;20037;-81
2022/01/17 02:48:22;;;;;;;2.58;0.63;;;;;;;-0.76;97.01;97597.56;5049409;28;20128;-80
2022/01/17 02:50:48;;;;;;;1.75;0.80;;;;;;;-0.77;96.85;97595.94;5046833;28;20037;-82
2022/01/17 02:53:14;;;;;;;1.40;0.98;;;;;;;-0.73;97.02;97588.91;5031565;28;20504;-80
2022/01/17 02:55:48;;;;;;;0.70;0.52;;;;;;;-0.71;96.76;97584.03;5048919;28;20519;-82
2022/01/17 02:58:14;;;;;;;1.25;1.15;;;;;;;-0.69;97.20;97587.28;5050054;28;20503;-79
2022/01/17 03:00:40;;;;;;;0.88;0.57;;;;;;;-0.67;97.06;97590.50;5047116;28;20134;-80
2022/01/17 03:03:09;;;;;;;1.42;0.60;;;;;;;-0.64;97.21;97589.91;5049010;28;20526;-79
2022/01/17 03:05:34;;;;;;;2.00;0.73;;;;;;;-0.62;97.08;97587.75;5054792;28;20286;-80
2022/01/17 03:08:00;;;;;;;1.83;0.60;;;;;;;-0.60;97.06;97580.19;5042663;28;20632;-81
2022/01/17 03:13:03;;;;;;;2.80;0.80;;;;;;;-0.54;97.57;97567.47;5048574;28;20059;-80
2022/01/17 03:15:29;;;;;;;4.10;0.80;;;;;;;-0.55;97.39;97563.97;5049269;28;20040;-81
2022/01/17 03:17:55;;;;;;;2.15;0.82;;;;;;;-0.54;96.99;97560.19;5033764;28;20040;-81
2022/01/17 03:20:21;;;;;;;2.38;1.00;;;;;;;-0.61;96.83;97552.44;5034114;28;20045;-81
2022/01/17 03:22:46;;;;;;;2.53;1.10;;;;;;;-0.64;96.74;97550.34;5050833;28;20048;-81
2022/01/17 03:25:12;;;;;;;2.38;0.95;;;;;;;-0.63;96.62;97549.25;5066834;28;20041;-82
2022/01/17 03:27:37;;;;;;;2.63;0.80;;;;;;;-0.67;96.93;97539.34;5067789;28;20060;-81
2022/01/17 03:30:04;;;;;;;1.88;0.90;;;;;;;-0.71;96.29;97538.28;5051863;28;20037;-81
2022/01/17 03:32:30;;;;;;;2.45;0.85;;;;;;;-0.72;95.90;97533.97;5035690;28;20043;-81
2022/01/17 03:34:55;;;;;;;2.60;0.82;;;;;;;-0.75;95.61;97532.66;5053219;28;20041;-81
2022/01/17 03:37:22;;;;;;;3.65;0.80;;;;;;;-0.75;95.60;97529.97;5053058;28;20059;-81
2022/01/17 03:39:48;;;;;;;1.50;0.60;;;;;;;-0.75;95.49;97521.88;5053569;28;20083;-81
2022/01/17 03:42:14;;;;;;;0.82;0.70;;;;;;;-0.74;94.84;97525.38;5053526;28;20507;-81
2022/01/17 03:44:40;;;;;;;1.75;0.70;;;;;;;-0.72;94.69;97528.59;5033079;28;20045;-81
2022/01/17 03:47:06;;;;;;;2.78;0.80;;;;;;;-0.70;94.22;97526.41;5052503;28;20041;-82
2022/01/17 03:49:32;;;;;;;2.50;0.70;;;;;;;-0.70;94.68;97524.53;5041662;28;20039;-81
2022/01/17 03:51:57;;;;;;;1.48;0.60;;;;;;;-0.68;94.34;97521.56;5059021;28;20076;-82
2022/01/17 03:54:23;;;;;;;2.28;0.70;;;;;;;-0.67;93.95;97520.50;5046583;28;20431;-81
2022/01/17 03:56:48;;;;;;;0.80;0.60;;;;;;;-0.65;94.35;97510.22;5051225;28;20102;-81
2022/01/17 03:59:14;;;;;;;1.00;0.70;;;;;;;-0.62;94.29;97507.75;5045616;28;20090;-81
2022/01/17 04:01:40;;;;;;;1.55;0.65;;;;;;;-0.61;94.40;97512.06;5047943;28;20415;-81
2022/01/17 04:04:06;;;;;;;4.75;0.70;;;;;;;-0.57;94.61;97496.13;5042667;28;20089;-81
2022/01/17 04:06:32;;;;;;;0.82;0.60;;;;;;;-0.54;94.70;97490.16;5046329;28;20435;-81
2022/01/17 04:08:57;;;;;;;1.80;0.50;;;;;;;-0.55;94.54;97495.84;5052156;28;20571;-83
2022/01/17 04:11:24;;;;;;;0.40;0.40;;;;;;;-0.56;94.53;97497.72;5052355;28;20123;-83
2022/01/17 04:13:49;;;;;;;0.47;0.47;;;;;;;-0.56;94.89;97486.97;5050280;28;20052;-83
2022/01/17 04:16:15;;;;;;;1.17;0.77;;;;;;;-0.56;95.01;97486.16;5051071;28;20040;-82
2022/01/17 04:18:40;;;;;;;2.78;0.73;;;;;;;-0.58;95.17;97475.69;5050948;28;20064;-82
2022/01/17 04:21:06;;;;;;;1.00;0.50;;;;;;;-0.57;94.95;97473.78;5051818;28;20475;-80
2022/01/17 04:23:32;;;;;;;1.33;0.50;;;;;;;-0.59;95.41;97466.00;5062444;28;20044;-84
2022/01/17 04:25:57;;;;;;;2.20;0.80;;;;;;;-0.58;95.38;97459.53;5032510;28;20483;-83
2022/01/17 04:28:23;;;;;;;1.33;0.70;;;;;;;-0.58;95.22;97459.53;5047621;28;20033;-83
2022/01/17 04:30:49;;;;;;;2.20;0.68;;;;;;;-0.55;95.49;97452.75;5051633;28;20055;-83
2022/01/17 04:33:15;;;;;;;0.90;0.57;;;;;;;-0.61;95.54;97444.75;5032556;28;20036;-83
2022/01/17 04:35:42;;;;;;;0.60;0.55;;;;;;;-0.66;95.62;97447.50;5032898;28;20049;-84
2022/01/17 04:38:09;;;;;;;0.40;0.40;;;;;;;-0.69;95.61;97441.91;5033401;28;20043;-84
2022/01/17 04:40:37;;;;;;;0.52;0.50;;;;;;;-0.72;95.64;97448.63;5050830;28;20076;-84
2022/01/17 04:43:05;;;;;;;1.27;0.80;;;;;;;-0.75;95.73;97443.00;5051679;28;20499;-84
2022/01/17 04:45:32;;;;;;;0.98;0.60;;;;;;;-0.77;96.07;97446.00;5051413;28;20036;-83
2022/01/17 04:47:58;;;;;;;0.90;0.45;;;;;;;-0.77;95.95;97446.00;5050051;28;20045;-83
2022/01/17 04:50:26;;;;;;;0.85;0.50;;;;;;;-0.77;96.17;97439.81;5034257;28;20040;-83
2022/01/17 04:52:55;;;;;;;1.13;0.60;;;;;;;-0.77;96.28;97434.44;5033378;28;20041;-85
2022/01/17 04:55:21;;;;;;;0.82;0.57;;;;;;;-0.78;96.20;97433.63;5032850;28;20048;-83
2022/01/17 04:57:48;;;;;;;3.47;1.13;;;;;;;-0.79;96.46;97432.03;5033243;28;20040;-83
2022/01/17 05:00:17;;;;;;;2.58;1.05;;;;;;;-0.79;96.32;97431.22;5051199;28;20504;-83
2022/01/17 05:02:43;;;;;;;2.83;0.65;;;;;;;-0.81;96.53;97428.03;5032737;28;20040;-83
2022/01/17 05:05:10;;;;;;;1.20;0.57;;;;;;;-0.83;96.40;97425.63;5031283;28;20045;-82
2022/01/17 05:07:36;;;;;;;2.58;0.85;;;;;;;-0.84;96.33;97423.22;5067232;28;20069;-82
2022/01/17 05:10:04;;;;;;;0.82;0.73;;;;;;;-0.88;96.27;97416.78;5049508;28;20114;-83
2022/01/17 05:12:30;;;;;;;1.55;0.80;;;;;;;-0.89;96.71;97417.88;5051457;28;20040;-83
2022/01/17 05:14:57;;;;;;;0.88;0.70;;;;;;;-0.90;96.54;97419.75;5055570;28;20416;-82
2022/01/17 05:19:58;;;;;;;1.35;0.88;;;;;;;-0.94;96.72;97402.59;5050770;28;20044;-81
2022/01/17 05:22:33;;;;;;;1.27;0.80;;;;;;;-0.95;96.65;97401.78;5026166;28;20591;-80
2022/01/17 05:25:00;;;;;;;0.85;0.75;;;;;;;-0.97;96.46;97395.88;5013006;28;20046;-79
2022/01/17 05:27:26;;;;;;;2.60;0.82;;;;;;;-0.98;96.23;97396.97;4991021;28;20061;-81
2022/01/17 05:29:52;;;;;;;2.42;0.95;;;;;;;-1.00;96.70;97393.78;5025241;28;20173;-81
2022/01/17 05:32:18;;;;;;;1.98;0.77;;;;;;;-0.99;96.56;97394.56;5020944;28;20137;-81
2022/01/17 05:34:43;;;;;;;2.38;1.05;;;;;;;-1.01;96.27;97394.84;5011023;28;20042;-82
2022/01/17 05:37:10;;;;;;;1.67;1.08;;;;;;;-1.02;96.33;97385.19;5009547;28;20432;-81
2022/01/17 05:39:37;;;;;;;2.22;1.10;;;;;;;-1.04;96.24;97379.28;5024713;28;20127;-80
2022/01/17 05:42:04;;;;;;;3.47;1.10;;;;;;;-1.08;96.60;97364.78;5017380;28;20132;-79
2022/01/17 05:44:30;;;;;;;2.15;1.10;;;;;;;-1.10;96.41;97363.47;4993219;28;20140;-79
2022/01/17 05:46:56;;;;;;;1.25;1.15;;;;;;;-1.11;96.42;97346.53;5010569;28;20535;-79
2022/01/17 05:49:22;;;;;;;1.25;0.98;;;;;;;-1.11;96.36;97349.22;5009380;28;20046;-79
2022/01/17 05:51:48;;;;;;;2.50;1.15;;;;;;;-1.12;96.41;97342.22;5006244;28;20412;-79
2022/01/17 05:54:13;;;;;;;2.97;1.30;;;;;;;-1.12;96.45;97334.16;5029170;28;20031;-87
2022/01/17 05:56:39;;;;;;;2.03;1.00;;;;;;;-1.12;96.26;97331.47;5041605;28;20416;-79
2022/01/17 05:59:05;;;;;;;1.40;1.30;;;;;;;-1.13;95.99;97324.50;5011052;28;20067;-84
2022/01/17 06:01:30;;;;;;;1.23;1.00;;;;;;;-1.13;95.96;97324.50;5010848;28;20104;-86
2022/01/17 06:03:56;;;;;;;1.48;1.38;;;;;;;-1.13;96.21;97335.25;5005581;28;20037;-79
2022/01/17 06:06:21;;;;;;;1.38;1.25;;;;;;;-1.14;96.59;97349.78;4999324;28;20041;-81
2022/01/17 06:08:47;;;;;;;2.28;1.30;;;;;;;-1.11;96.37;97375.31;5041375;28;20037;-80
2022/01/17 06:11:12;;;;;;;2.20;1.48;;;;;;;-1.11;96.14;97392.25;5009393;28;20092;-80
2022/01/17 06:13:38;;;;;;;2.35;1.42;;;;;;;-1.08;96.12;97404.34;5026822;28;20084;-80
2022/01/17 06:16:04;;;;;;;2.50;1.48;;;;;;;-1.08;96.48;97421.28;5019017;28;20397;-80
2022/01/17 06:18:30;;;;;;;2.65;1.48;;;;;;;-1.08;96.39;97423.97;5020630;28;20070;-80
2022/01/17 06:20:55;;;;;;;3.00;1.58;;;;;;;-1.08;96.23;97426.66;5023893;28;20060;-80
2022/01/17 06:23:21;;;;;;;1.98;1.77;;;;;;;-1.06;96.48;97410.22;5060794;28;20037;-80
2022/01/17 06:25:47;;;;;;;4.20;1.80;;;;;;;-1.09;96.19;97376.63;5064006;28;20041;-80
2022/01/17 06:28:13;;;;;;;3.08;1.60;;;;;;;-1.09;96.37;97376.63;5066637;28;20036;-80
2022/01/17 06:30:39;;;;;;;2.35;1.58;;;;;;;-1.06;96.34;97367.19;5066293;28;20076;-81
2022/01/17 06:33:04;;;;;;;3.95;1.83;;;;;;;-1.05;96.03;97356.13;5056734;28;20045;-81
2022/01/17 06:35:30;;;;;;;2.65;1.75;;;;;;;-1.08;96.25;97359.41;5055153;28;20037;-81
2022/01/17 06:37:56;;;;;;;8.45;2.38;;;;;;;-1.10;96.35;97372.34;5054523;28;20041;-81
2022/01/17 06:40:21;;;;;;;3.25;1.73;;;;;;;-1.08;96.28;97370.16;5053350;28;20172;-81
2022/01/17 06:42:47;;;;;;;2.65;1.65;;;;;;;-1.09;96.31;97382.00;5035486;28;20499;-81
2022/01/17 06:45:14;;;;;;;4.38;2.05;;;;;;;-1.08;96.39;97390.88;5053594;28;20048;-81
2022/01/17 06:47:39;;;;;;;3.63;1.95;;;;;;;-1.07;96.34;97400.56;5059600;28;20431;-81
2022/01/17 06:50:08;;;;;;;3.17;1.92;;;;;;;-1.08;96.30;97401.66;5035779;28;20041;-81
2022/01/17 06:52:34;;;;;;;4.30;1.90;;;;;;;-1.07;96.33;97420.19;5053091;28;20511;-81
2022/01/17 06:55:00;;;;;;;4.78;1.92;;;;;;;-1.03;96.42;97429.34;5067664;28;20044;-81
2022/01/17 06:57:25;;;;;;;3.47;2.10;;;;;;;-1.03;96.36;97421.25;5053465;28;20418;-82
2022/01/17 06:59:51;;;;;;;3.78;2.17;;;;;;;-1.01;96.49;97442.50;5053935;28;20048;-80
2022/01/17 07:02:17;;;;;;;5.78;2.58;;;;;;;-0.99;96.69;97451.09;5053647;28;20363;-82
2022/01/17 07:04:42;;;;;;;4.70;2.33;;;;;;;-0.97;96.52;97443.53;5054107;28;20040;-81
2022/01/17 07:07:08;;;;;;;5.28;2.08;;;;;;;-0.95;96.35;97436.75;5050706;28;20466;-80
2022/01/17 07:09:34;;;;;;;3.60;2.53;;;;;;;-0.92;96.18;97433.50;5035464;28;20046;-81
2022/01/17 07:11:59;;;;;;;7.30;2.80;;;;;;;-0.83;97.15;97414.06;5035150;28;20049;-81
2022/01/17 07:14:26;;;;;;;5.85;2.95;;;;;;;-0.72;96.42;97418.22;5034645;28;20068;-82
2022/01/17 07:16:53;;;;;;;3.42;2.45;;;;;;;-0.65;96.67;97421.38;5036658;28;20052;-80
2022/01/17 07:19:19;;;;;;;9.13;2.63;;;;;;;-0.61;96.88;97412.44;5055198;28;20049;-80
2022/01/17 07:21:44;;;;;;;7.40;3.03;;;;;;;-0.55;96.95;97421.25;5053424;28;20052;-82
2022/01/17 07:24:10;;;;;;;5.25;2.90;;;;;;;-0.51;96.88;97430.38;5035578;28;20415;-82
2022/01/17 07:26:36;;;;;;;8.57;3.13;;;;;;;-0.47;97.00;97436.78;5052550;28;20110;-81
2022/01/17 07:29:05;;;;;;;5.95;3.53;;;;;;;-0.48;97.37;97434.38;5051884;28;20106;-81
2022/01/17 07:31:32;;;;;;;7.00;2.80;;;;;;;-0.49;97.15;97430.88;5053334;28;20419;-81
2022/01/17 07:33:58;;;;;;;5.10;2.95;;;;;;;-0.51;97.24;97430.38;5051615;28;20064;-81
2022/01/17 07:36:24;;;;;;;4.93;3.00;;;;;;;-0.52;97.06;97436.84;5053498;28;20043;-81
2022/01/17 07:38:50;;;;;;;5.70;3.13;;;;;;;-0.52;97.19;97446.78;5053553;28;20045;-82
2022/01/17 07:41:16;;;;;;;4.72;3.05;;;;;;;-0.53;97.06;97439.81;5051784;28;20056;-81
2022/01/17 07:43:42;;;;;;;8.25;3.85;;;;;;;-0.53;97.33;97440.59;5053091;28;20525;-81
2022/01/17 07:46:18;;;;;;;6.75;3.60;;;;;;;-0.53;97.25;97432.53;5052825;28;20459;-81
2022/01/17 07:51:29;;;;;;;7.45;3.00;;;;;;;-0.53;96.99;97435.22;5052974;28;20041;-81
2022/01/17 07:53:56;;;;;;;8.10;3.65;;;;;;;-0.54;96.89;97428.22;5051573;28;20033;-81
2022/01/17 07:56:23;;;;;;;6.03;3.58;;;;;;;-0.57;97.48;97438.78;5060096;28;20036;-81
2022/01/17 07:58:48;;;;;;;6.65;3.60;;;;;;;-0.57;97.40;97433.38;5051403;28;20128;-81
2022/01/17 08:01:15;;;;;;;6.30;3.80;;;;;;;-0.59;97.39;97436.38;5051100;28;20132;-81
2022/01/17 08:03:40;;;;;;;8.63;4.18;;;;;;;-0.57;97.07;97446.84;5052434;28;20041;-81
2022/01/17 08:06:06;;;;;;;9.27;4.68;;;;;;;-0.56;97.44;97456.53;5052607;28;20037;-81
2022/01/17 08:08:32;;;;;;;5.60;3.22;;;;;;;-0.58;97.50;97461.41;5052319;28;20036;-81
2022/01/17 08:10:58;;;;;;;9.27;4.03;;;;;;;-0.58;97.22;97467.59;5051152;28;20139;-81
2022/01/17 08:13:24;;;;;;;10.05;3.95;;;;;;;-0.57;96.92;97482.66;5034830;28;20179;-81
2022/01/17 08:15:50;;;;;;;7.93;3.70;;;;;;;-0.56;96.77;97488.84;5052565;28;20049;-81
2022/01/17 08:18:16;;;;;;;9.13;3.92;;;;;;;-0.56;97.16;97492.34;5052463;28;20457;-81
2022/01/17 08:20:42;;;;;;;11.20;3.75;;;;;;;-0.54;97.07;97498.25;5067482;28;20044;-81
2022/01/17 08:23:08;;;;;;;7.57;3.90;;;;;;;-0.51;96.79;97505.78;5051746;28;20356;-81
2022/01/17 08:25:35;;;;;;;7.22;4.05;;;;;;;-0.49;96.95;97510.88;5052020;28;20407;-80
2022/01/17 08:28:00;;;;;;;7.05;3.80;;;;;;;-0.48;96.81;97513.28;5034162;28;20049;-80
2022/01/17 08:30:26;;;;;;;7.45;3.75;;;;;;;-0.46;96.90;97521.06;5051006;28;20055;-80
2022/01/17 08:32:52;;;;;;;5.72;4.22;;;;;;;-0.44;97.11;97525.09;5051904;28;20091;-80
2022/01/17 08:35:20;;;;;;;5.78;3.58;;;;;;;-0.42;97.21;97532.88;5052188;28;20037;-80
2022/01/17 08:37:46;;;;;;;9.80;4.57;;;;;;;-0.43;97.57;97542.84;5033910;28;20094;-80
2022/01/17 08:40:12;;;;;;;6.20;3.80;;;;;;;-0.41;97.22;97547.94;5051604;28;20041;-80
2022/01/17 08:42:38;;;;;;;7.45;4.10;;;;;;;-0.40;97.56;97547.66;5033936;28;20131;-81
2022/01/17 08:45:09;;;;;;;8.90;4.10;;;;;;;-0.37;97.12;97555.16;5051585;28;20104;-80
2022/01/17 08:47:35;;;;;;;12.20;5.00;;;;;;;-0.37;97.23;97554.34;5052076;28;20045;-81
2022/01/17 08:50:02;;;;;;;8.43;4.85;;;;;;;-0.36;97.37;97559.47;5066837;28;20132;-80
2022/01/17 08:52:28;;;;;;;10.38;5.32;;;;;;;-0.33;96.83;97561.59;5050259;28;20556;-80
2022/01/17 08:54:54;;;;;;;12.00;5.78;;;;;;;-0.33;97.03;97572.38;5049986;28;20033;-80
2022/01/17 08:57:20;;;;;;;13.50;7.90;;;;;;;-0.32;97.21;97571.28;5034551;28;20106;-81
2022/01/17 08:59:46;;;;;;;17.85;7.65;;;;;;;-0.30;97.27;97576.38;5043365;28;20143;-80
2022/01/17 09:02:12;;;;;;;14.02;7.43;;;;;;;-0.29;97.17;97579.88;5050081;28;20411;-80
2022/01/17 09:04:40;;;;;;;15.10;7.90;;;;;;;-0.31;97.27;97570.19;5049282;28;20391;-80
2022/01/17 09:07:11;;;;;;;13.70;6.10;;;;;;;-0.33;97.06;97585.06;5051094;28;20163;-80
2022/01/17 09:09:38;;;;;;;10.85;5.85;;;;;;;-0.37;97.30;97584.78;5051007;28;20214;-80
2022/01/17 09:12:09;;;;;;;12.43;6.65;;;;;;;-0.37;97.37;97595.56;5051094;28;20083;-81
2022/01/17 09:14:35;;;;;;;10.30;5.68;;;;;;;-0.35;97.06;97592.59;5044953;28;20508;-81
2022/01/17 09:17:02;;;;;;;8.40;5.18;;;;;;;-0.34;97.35;97597.72;5013266;28;20033;-80
2022/01/17 09:19:28;;;;;;;7.43;4.70;;;;;;;-0.35;97.65;97596.13;5031101;28;20052;-80
2022/01/17 09:21:54;;;;;;;8.57;4.95;;;;;;;-0.35;97.15;97606.88;5031448;28;20057;-80
2022/01/17 09:24:20;;;;;;;7.88;5.50;;;;;;;-0.36;96.98;97599.88;5031417;28;20133;-80
2022/01/17 09:26:46;;;;;;;8.63;6.28;;;;;;;-0.35;97.35;97598.81;5031278;28;20091;-80
2022/01/17 09:29:12;;;;;;;9.02;5.65;;;;;;;-0.37;97.38;97595.56;5046458;28;20038;-80
2022/01/17 09:31:38;;;;;;;12.18;6.25;;;;;;;-0.36;96.99;97599.88;5029878;28;20129;-79
2022/01/17 09:34:04;;;;;;;12.48;5.72;;;;;;;-0.32;97.10;97609.00;5030806;28;20083;-80
2022/01/17 09:36:33;;;;;;;14.70;6.18;;;;;;;-0.31;97.08;97621.38;5029795;28;20037;-81
2022/01/17 09:39:05;;;;;;;10.23;5.78;;;;;;;-0.32;96.83;97619.78;5017027;28;20061;-81
2022/01/17 09:41:31;;;;;;;13.70;6.68;;;;;;;-0.29;97.13;97628.38;5011225;28;20041;-80
2022/01/17 09:43:57;;;;;;;14.70;7.35;;;;;;;-0.29;96.96;97623.78;5008908;28;20451;-81
2022/01/17 09:46:31;;;;;;;11.38;6.47;;;;;;;-0.25;97.01;97637.50;5011094;28;20042;-82
2022/01/17 09:49:13;;;;;;;13.25;6.97;;;;;;;-0.23;97.02;97633.44;4997140;28;20034;-82
2022/01/17 09:54:27;;;;;;;9.30;6.30;;;;;;;-0.23;97.07;97646.09;5017689;28;20393;-82
2022/01/17 09:56:54;;;;;;;14.32;6.85;;;;;;;-0.23;97.27;97659.56;5010720;28;20042;-81
2022/01/17 09:59:20;;;;;;;12.23;6.75;;;;;;;-0.25;97.24;97653.66;5017661;28;20451;-81
2022/01/17 10:01:47;;;;;;;12.43;7.38;;;;;;;-0.27;96.85;97667.41;5015469;28;20095;-81
2022/01/17 10:04:13;;;;;;;12.93;7.50;;;;;;;-0.29;96.85;97661.50;5005276;28;20033;-80
2022/01/17 10:06:40;;;;;;;13.30;7.15;;;;;;;-0.31;96.91;97659.09;5017706;28;20049;-80
2022/01/17 10:09:17;;;;;;;17.63;7.38;;;;;;;-0.35;96.90;97666.16;5017428;28;20046;-81
2022/01/17 10:12:05;;;;;;;17.27;7.47;;;;;;;-0.35;96.63;97674.25;5003100;28;20084;-81
2022/01/17 10:14:38;;;;;;;11.80;6.75;;;;;;;-0.36;96.39;97674.50;5036904;28;20099;-81
2022/01/17 10:17:16;;;;;;;10.65;6.10;;;;;;;-0.42;96.87;97672.94;5052679;28;20071;-81
2022/01/17 10:19:42;;;;;;;12.80;6.32;;;;;;;-0.47;96.50;97681.88;5036711;28;20073;-81
2022/01/17 10:22:14;;;;;;;6.78;4.40;;;;;;;-0.58;96.03;97685.72;5022677;28;20058;-80
2022/01/17 10:24:53;;;;;;;7.57;3.75;;;;;;;-0.63;95.99;97693.84;5017067;28;20100;-81
2022/01/17 10:30:24;;;;;;;5.05;2.17;;;;;;;-0.87;94.75;97693.72;5007726;28;20568;-81
2022/01/17 10:35:34;;;;;;;4.80;1.85;;;;;;;-0.98;93.30;97711.03;5016738;28;20076;-81
2022/01/17 10:38:04;;;;;;;2.33;1.60;;;;;;;-1.05;91.92;97705.94;5015332;28;20038;-80
2022/01/17 10:40:34;;;;;;;4.55;1.65;;;;;;;-1.03;91.99;97719.94;5028901;28;20080;-82
2022/01/17 10:43:02;;;;;;;2.50;1.20;;;;;;;-1.02;92.12;97729.63;5015108;28;20038;-79
2022/01/17 10:45:33;;;;;;;3.25;1.40;;;;;;;-1.03;91.94;97738.78;5016356;28;20030;-80
2022/01/17 10:48:00;;;;;;;3.20;1.48;;;;;;;-1.04;91.37;97741.72;5012072;28;20124;-80
2022/01/17 10:50:32;;;;;;;2.72;1.30;;;;;;;-1.07;91.46;97745.78;5016082;28;20040;-81
2022/01/17 10:53:01;;;;;;;2.05;1.20;;;;;;;-1.10;91.64;97759.78;5029816;28;20124;-78
2022/01/17 10:55:30;;;;;;;4.35;1.45;;;;;;;-1.15;91.39;97759.81;5016440;28;20408;-78
2022/01/17 10:58:10;;;;;;;2.90;1.63;;;;;;;-1.19;91.33;97777.59;5016215;28;20046;-77
2022/01/17 11:00:46;;;;;;;3.10;1.73;;;;;;;-1.27;91.11;97783.53;5014365;28;20048;-77
2022/01/17 11:03:21;;;;;;;1.63;1.00;;;;;;;-1.35;90.64;97789.50;5014167;28;20508;-77
2022/01/17 11:05:52;;;;;;;3.83;1.27;;;;;;;-1.42;90.07;97791.66;5012918;28;20046;-79
2022/01/17 11:08:19;;;;;;;1.25;0.50;;;;;;;-1.51;89.09;97796.78;5027404;28;20089;-78
2022/01/17 11:10:50;;;;;;;1.13;0.70;;;;;;;-1.59;87.97;97811.59;5012807;28;20049;-78
2022/01/17 11:13:24;;;;;;;0.93;0.60;;;;;;;-1.69;86.98;97813.50;5012886;28;20080;-78
2022/01/17 11:15:56;;;;;;;0.95;0.82;;;;;;;-1.75;86.71;97823.44;5012599;28;20038;-80
2022/01/17 11:18:26;;;;;;;1.25;0.50;;;;;;;-1.83;85.92;97826.69;5011320;28;20532;-79
2022/01/17 11:21:10;;;;;;;0.95;0.68;;;;;;;-1.90;84.65;97820.78;5012434;28;20534;-78
2022/01/17 11:23:39;;;;;;;1.05;0.65;;;;;;;-1.96;84.80;97833.38;5013881;28;20088;-78
2022/01/17 11:26:06;;;;;;;3.00;0.80;;;;;;;-1.99;84.90;97831.25;5028816;28;20551;-79
2022/01/17 11:28:36;;;;;;;1.08;0.70;;;;;;;-2.02;84.13;97844.41;5015765;28;20045;-80
2022/01/17 11:31:07;;;;;;;2.22;0.93;;;;;;;-2.06;84.38;97840.66;5028855;28;20136;-80
2022/01/17 11:33:34;;;;;;;2.00;0.57;;;;;;;-2.14;83.53;97858.91;5008963;28;20492;-79
2022/01/17 11:36:00;;;;;;;0.57;0.57;;;;;;;-2.17;83.80;97854.06;5006716;28;20421;-79
2022/01/17 11:38:32;;;;;;;0.93;0.60;;;;;;;-2.23;82.83;97860.53;5007584;28;20042;-79
2022/01/17 11:40:59;;;;;;;1.15;0.63;;;;;;;-2.28;82.74;97852.44;5007511;28;20049;-79
2022/01/17 11:43:33;;;;;;;0.82;0.73;;;;;;;-2.32;83.11;97862.09;5009774;28;20046;-80
2022/01/17 11:46:02;;;;;;;1.50;0.80;;;;;;;-2.35;83.22;97876.06;5007744;28;20674;-79
2022/01/17 11:48:31;;;;;;;0.52;0.20;;;;;;;-2.44;83.08;97873.06;5008536;28;20776;-79
2022/01/17 11:50:59;;;;;;;;;;;;;;;-2.48;83.13;97892.66;5008935;28;20056;-79
2022/01/17 11:53:26;;;;;;;1.27;1.10;;;;;;;-2.53;82.68;97887.28;5006915;28;20461;-79
2022/01/17 11:55:52;;;;;;;1.08;0.80;;;;;;;-2.56;83.07;97893.19;5010540;28;20077;-79
2022/01/17 11:58:37;;;;;;;0.80;0.80;;;;;;;-2.63;82.75;97908.72;5008714;28;20448;-79
2022/01/17 12:01:02;;;;;;;0.40;0.30;;;;;;;-2.66;82.69;97920.00;5008057;28;20057;-79
2022/01/17 12:03:30;;;;;;;0.90;0.60;;;;;;;-2.67;83.15;97918.38;5009112;28;20034;-79
2022/01/17 12:06:03;;;;;;;1.92;0.90;;;;;;;-2.62;83.58;97929.94;5007995;28;20484;-80